sensor_id;sensor_type;location;lat;lon;timestamp;P1;durP1;ratioP1;P2;durP2;ratioP2
31270;SDS011;17904;47.420;9.310;2023-02-15T00:02:25;6.95;;;3.72;;
31270;SDS011;17904;47.420;9.310;2023-02-15T00:07:19;6.75;;;4.30;;
31270;SDS011;17904;47.420;9.310;2023-02-15T00:12:13;6.63;;;3.87;;
31270;SDS011;17904;47.420;9.310;2023-02-15T00:14:41;7.15;;;3.33;;
31270;SDS011;17904;47.420;9.310;2023-02-15T00:17:08;7.35;;;4.03;;
31270;SDS011;17904;47.420;9.310;2023-02-15T00:19:35;6.65;;;3.85;;
31270;SDS011;17904;47.420;9.310;2023-02-15T00:22:02;8.07;;;4.18;;
31270;SDS011;17904;47.420;9.310;2023-02-15T00:26:55;7.63;;;3.95;;
31270;SDS011;17904;47.420;9.310;2023-02-15T00:29:22;8.38;;;4.85;;
31270;SDS011;17904;47.420;9.310;2023-02-15T00:31:49;10.10;;;4.07;;
31270;SDS011;17904;47.420;9.310;2023-02-15T00:34:20;5.05;;;3.78;;
31270;SDS011;17904;47.420;9.310;2023-02-15T00:36:48;6.22;;;3.35;;
31270;SDS011;17904;47.420;9.310;2023-02-15T00:39:16;6.72;;;3.90;;
31270;SDS011;17904;47.420;9.310;2023-02-15T00:41:43;5.95;;;3.22;;
31270;SDS011;17904;47.420;9.310;2023-02-15T00:44:11;8.98;;;2.95;;
31270;SDS011;17904;47.420;9.310;2023-02-15T00:46:38;5.38;;;2.88;;
31270;SDS011;17904;47.420;9.310;2023-02-15T00:49:08;5.07;;;3.50;;
31270;SDS011;17904;47.420;9.310;2023-02-15T00:51:35;5.80;;;3.47;;
31270;SDS011;17904;47.420;9.310;2023-02-15T00:54:02;7.72;;;3.67;;
31270;SDS011;17904;47.420;9.310;2023-02-15T00:58:55;5.65;;;3.10;;
31270;SDS011;17904;47.420;9.310;2023-02-15T01:01:22;4.80;;;3.10;;
31270;SDS011;17904;47.420;9.310;2023-02-15T01:03:50;5.93;;;3.03;;
31270;SDS011;17904;47.420;9.310;2023-02-15T01:08:44;8.57;;;4.63;;
31270;SDS011;17904;47.420;9.310;2023-02-15T01:11:15;7.68;;;3.97;;
31270;SDS011;17904;47.420;9.310;2023-02-15T01:13:49;7.97;;;3.15;;
31270;SDS011;17904;47.420;9.310;2023-02-15T01:16:18;4.63;;;3.53;;
31270;SDS011;17904;47.420;9.310;2023-02-15T01:18:45;6.35;;;3.78;;
31270;SDS011;17904;47.420;9.310;2023-02-15T01:21:15;6.68;;;3.20;;
31270;SDS011;17904;47.420;9.310;2023-02-15T01:23:43;7.53;;;3.03;;
31270;SDS011;17904;47.420;9.310;2023-02-15T01:26:11;5.53;;;3.20;;
31270;SDS011;17904;47.420;9.310;2023-02-15T01:28:38;4.68;;;3.00;;
31270;SDS011;17904;47.420;9.310;2023-02-15T01:31:06;4.53;;;2.80;;
31270;SDS011;17904;47.420;9.310;2023-02-15T01:33:36;5.25;;;2.53;;
31270;SDS011;17904;47.420;9.310;2023-02-15T01:36:03;5.55;;;2.80;;
31270;SDS011;17904;47.420;9.310;2023-02-15T01:38:31;6.63;;;3.20;;
31270;SDS011;17904;47.420;9.310;2023-02-15T01:40:58;9.27;;;4.22;;
31270;SDS011;17904;47.420;9.310;2023-02-15T01:43:46;9.15;;;4.85;;
31270;SDS011;17904;47.420;9.310;2023-02-15T01:46:17;9.02;;;4.28;;
31270;SDS011;17904;47.420;9.310;2023-02-15T01:48:48;7.68;;;3.53;;
31270;SDS011;17904;47.420;9.310;2023-02-15T01:51:20;8.30;;;5.00;;
31270;SDS011;17904;47.420;9.310;2023-02-15T01:53:51;10.52;;;5.45;;
31270;SDS011;17904;47.420;9.310;2023-02-15T01:56:24;8.65;;;4.15;;
31270;SDS011;17904;47.420;9.310;2023-02-15T01:58:54;7.30;;;4.05;;
31270;SDS011;17904;47.420;9.310;2023-02-15T02:01:25;8.13;;;4.30;;
31270;SDS011;17904;47.420;9.310;2023-02-15T02:06:38;7.57;;;3.85;;
31270;SDS011;17904;47.420;9.310;2023-02-15T02:09:05;6.30;;;3.53;;
31270;SDS011;17904;47.420;9.310;2023-02-15T02:11:32;6.25;;;4.03;;
31270;SDS011;17904;47.420;9.310;2023-02-15T02:14:00;7.25;;;4.03;;
31270;SDS011;17904;47.420;9.310;2023-02-15T02:16:28;7.35;;;4.28;;
31270;SDS011;17904;47.420;9.310;2023-02-15T02:24:48;10.25;;;5.22;;
31270;SDS011;17904;47.420;9.310;2023-02-15T02:27:44;7.10;;;3.77;;
31270;SDS011;17904;47.420;9.310;2023-02-15T02:36:08;10.18;;;5.60;;
31270;SDS011;17904;47.420;9.310;2023-02-15T02:41:50;10.80;;;6.03;;
31270;SDS011;17904;47.420;9.310;2023-02-15T02:44:35;8.65;;;5.45;;
31270;SDS011;17904;47.420;9.310;2023-02-15T02:47:51;10.93;;;5.90;;
31270;SDS011;17904;47.420;9.310;2023-02-15T02:50:26;6.72;;;4.47;;
31270;SDS011;17904;47.420;9.310;2023-02-15T02:52:55;6.95;;;4.13;;
31270;SDS011;17904;47.420;9.310;2023-02-15T02:55:38;6.65;;;4.60;;
31270;SDS011;17904;47.420;9.310;2023-02-15T02:58:18;17.33;;;5.25;;
31270;SDS011;17904;47.420;9.310;2023-02-15T03:00:56;17.05;;;6.78;;
31270;SDS011;17904;47.420;9.310;2023-02-15T03:03:29;14.82;;;6.93;;
31270;SDS011;17904;47.420;9.310;2023-02-15T03:06:01;13.82;;;7.45;;
31270;SDS011;17904;47.420;9.310;2023-02-15T03:08:35;12.50;;;7.03;;
31270;SDS011;17904;47.420;9.310;2023-02-15T03:11:04;10.23;;;5.88;;
31270;SDS011;17904;47.420;9.310;2023-02-15T03:13:31;10.85;;;6.22;;
31270;SDS011;17904;47.420;9.310;2023-02-15T03:15:59;8.45;;;5.55;;
31270;SDS011;17904;47.420;9.310;2023-02-15T03:18:48;11.68;;;6.03;;
31270;SDS011;17904;47.420;9.310;2023-02-15T03:21:26;11.68;;;6.30;;
31270;SDS011;17904;47.420;9.310;2023-02-15T03:23:59;12.32;;;6.57;;
31270;SDS011;17904;47.420;9.310;2023-02-15T03:26:33;14.45;;;8.55;;
31270;SDS011;17904;47.420;9.310;2023-02-15T03:29:00;16.45;;;8.43;;
31270;SDS011;17904;47.420;9.310;2023-02-15T03:31:31;12.30;;;7.13;;
31270;SDS011;17904;47.420;9.310;2023-02-15T03:34:02;10.02;;;6.30;;
31270;SDS011;17904;47.420;9.310;2023-02-15T03:36:36;10.70;;;6.55;;
31270;SDS011;17904;47.420;9.310;2023-02-15T03:41:55;10.65;;;4.38;;
31270;SDS011;17904;47.420;9.310;2023-02-15T03:44:46;9.25;;;4.32;;
31270;SDS011;17904;47.420;9.310;2023-02-15T03:47:19;7.07;;;3.85;;
31270;SDS011;17904;47.420;9.310;2023-02-15T03:52:24;7.75;;;4.30;;
31270;SDS011;17904;47.420;9.310;2023-02-15T03:54:54;7.03;;;4.20;;
31270;SDS011;17904;47.420;9.310;2023-02-15T03:57:23;9.30;;;4.43;;
31270;SDS011;17904;47.420;9.310;2023-02-15T04:05:43;9.40;;;4.22;;
31270;SDS011;17904;47.420;9.310;2023-02-15T04:08:11;9.13;;;4.00;;
31270;SDS011;17904;47.420;9.310;2023-02-15T04:10:38;8.80;;;4.90;;
31270;SDS011;17904;47.420;9.310;2023-02-15T04:13:22;9.20;;;4.68;;
31270;SDS011;17904;47.420;9.310;2023-02-15T04:15:55;8.30;;;5.25;;
31270;SDS011;17904;47.420;9.310;2023-02-15T04:21:22;4.35;;;2.95;;
31270;SDS011;17904;47.420;9.310;2023-02-15T04:24:09;7.47;;;3.00;;
31270;SDS011;17904;47.420;9.310;2023-02-15T04:26:55;5.15;;;2.47;;
31270;SDS011;17904;47.420;9.310;2023-02-15T04:29:23;6.07;;;3.10;;
31270;SDS011;17904;47.420;9.310;2023-02-15T04:31:51;6.18;;;2.95;;
31270;SDS011;17904;47.420;9.310;2023-02-15T04:34:19;7.53;;;2.95;;
31270;SDS011;17904;47.420;9.310;2023-02-15T04:36:46;5.10;;;2.83;;
31270;SDS011;17904;47.420;9.310;2023-02-15T04:41:41;2.80;;;2.10;;
31270;SDS011;17904;47.420;9.310;2023-02-15T04:44:07;4.95;;;2.70;;
31270;SDS011;17904;47.420;9.310;2023-02-15T04:46:34;6.72;;;2.72;;
31270;SDS011;17904;47.420;9.310;2023-02-15T04:49:01;3.70;;;2.00;;
31270;SDS011;17904;47.420;9.310;2023-02-15T04:51:29;16.00;;;7.70;;
31270;SDS011;17904;47.420;9.310;2023-02-15T04:53:55;32.65;;;19.00;;
31270;SDS011;17904;47.420;9.310;2023-02-15T04:56:22;31.02;;;17.75;;
31270;SDS011;17904;47.420;9.310;2023-02-15T05:01:16;12.90;;;6.55;;
31270;SDS011;17904;47.420;9.310;2023-02-15T05:03:43;8.88;;;4.95;;
31270;SDS011;17904;47.420;9.310;2023-02-15T05:08:37;4.05;;;2.42;;
31270;SDS011;17904;47.420;9.310;2023-02-15T05:13:30;4.85;;;2.35;;
31270;SDS011;17904;47.420;9.310;2023-02-15T05:18:23;5.40;;;2.47;;
31270;SDS011;17904;47.420;9.310;2023-02-15T05:23:17;2.97;;;2.22;;
31270;SDS011;17904;47.420;9.310;2023-02-15T05:33:52;4.13;;;2.30;;
31270;SDS011;17904;47.420;9.310;2023-02-15T05:38:46;5.00;;;1.80;;
31270;SDS011;17904;47.420;9.310;2023-02-15T05:43:39;3.05;;;1.77;;
31270;SDS011;17904;47.420;9.310;2023-02-15T05:46:06;3.42;;;2.10;;
31270;SDS011;17904;47.420;9.310;2023-02-15T05:48:33;5.20;;;1.90;;
31270;SDS011;17904;47.420;9.310;2023-02-15T05:51:08;3.83;;;2.42;;
31270;SDS011;17904;47.420;9.310;2023-02-15T05:53:40;4.45;;;2.17;;
31270;SDS011;17904;47.420;9.310;2023-02-15T05:56:07;2.83;;;1.80;;
31270;SDS011;17904;47.420;9.310;2023-02-15T05:58:39;2.97;;;2.67;;
31270;SDS011;17904;47.420;9.310;2023-02-15T06:03:37;4.40;;;2.50;;
31270;SDS011;17904;47.420;9.310;2023-02-15T06:06:04;4.57;;;2.35;;
31270;SDS011;17904;47.420;9.310;2023-02-15T06:08:32;3.60;;;2.25;;
31270;SDS011;17904;47.420;9.310;2023-02-15T06:11:00;4.60;;;2.20;;
31270;SDS011;17904;47.420;9.310;2023-02-15T06:13:27;8.40;;;2.33;;
31270;SDS011;17904;47.420;9.310;2023-02-15T06:15:54;3.65;;;2.15;;
31270;SDS011;17904;47.420;9.310;2023-02-15T06:18:21;4.35;;;1.92;;
31270;SDS011;17904;47.420;9.310;2023-02-15T06:23:14;3.38;;;1.90;;
31270;SDS011;17904;47.420;9.310;2023-02-15T06:25:41;3.22;;;1.90;;
31270;SDS011;17904;47.420;9.310;2023-02-15T06:28:10;5.93;;;2.17;;
31270;SDS011;17904;47.420;9.310;2023-02-15T06:33:03;4.18;;;2.40;;
31270;SDS011;17904;47.420;9.310;2023-02-15T06:35:30;4.22;;;2.00;;
31270;SDS011;17904;47.420;9.310;2023-02-15T06:40:23;7.80;;;2.05;;
31270;SDS011;17904;47.420;9.310;2023-02-15T06:45:17;7.72;;;2.63;;
31270;SDS011;17904;47.420;9.310;2023-02-15T06:50:10;3.90;;;2.05;;
31270;SDS011;17904;47.420;9.310;2023-02-15T06:52:37;6.15;;;2.45;;
31270;SDS011;17904;47.420;9.310;2023-02-15T06:57:31;3.70;;;2.10;;
31270;SDS011;17904;47.420;9.310;2023-02-15T06:59:59;5.25;;;2.92;;
31270;SDS011;17904;47.420;9.310;2023-02-15T07:02:26;4.50;;;3.10;;
31270;SDS011;17904;47.420;9.310;2023-02-15T07:04:52;4.13;;;2.50;;
31270;SDS011;17904;47.420;9.310;2023-02-15T07:07:19;6.90;;;4.18;;
31270;SDS011;17904;47.420;9.310;2023-02-15T07:12:13;10.40;;;2.58;;
31270;SDS011;17904;47.420;9.310;2023-02-15T07:14:58;6.55;;;2.95;;
31270;SDS011;17904;47.420;9.310;2023-02-15T07:17:25;4.32;;;3.05;;
31270;SDS011;17904;47.420;9.310;2023-02-15T07:20:06;5.05;;;2.80;;
31270;SDS011;17904;47.420;9.310;2023-02-15T07:22:35;6.68;;;3.30;;
31270;SDS011;17904;47.420;9.310;2023-02-15T07:25:03;5.47;;;3.03;;
31270;SDS011;17904;47.420;9.310;2023-02-15T07:27:31;7.88;;;2.90;;
31270;SDS011;17904;47.420;9.310;2023-02-15T07:29:58;4.47;;;3.20;;
31270;SDS011;17904;47.420;9.310;2023-02-15T07:32:29;12.85;;;3.00;;
31270;SDS011;17904;47.420;9.310;2023-02-15T07:34:58;6.60;;;2.92;;
31270;SDS011;17904;47.420;9.310;2023-02-15T07:37:25;5.15;;;3.10;;
31270;SDS011;17904;47.420;9.310;2023-02-15T07:39:52;10.23;;;4.07;;
31270;SDS011;17904;47.420;9.310;2023-02-15T07:42:19;12.15;;;3.67;;
31270;SDS011;17904;47.420;9.310;2023-02-15T07:44:48;9.05;;;3.60;;
31270;SDS011;17904;47.420;9.310;2023-02-15T07:49:41;9.00;;;4.15;;
31270;SDS011;17904;47.420;9.310;2023-02-15T07:54:34;8.23;;;3.72;;
31270;SDS011;17904;47.420;9.310;2023-02-15T07:57:01;7.35;;;3.60;;
31270;SDS011;17904;47.420;9.310;2023-02-15T07:59:28;6.13;;;4.03;;
31270;SDS011;17904;47.420;9.310;2023-02-15T08:04:22;6.72;;;3.60;;
31270;SDS011;17904;47.420;9.310;2023-02-15T08:06:52;11.35;;;4.63;;
31270;SDS011;17904;47.420;9.310;2023-02-15T08:09:20;9.63;;;4.05;;
31270;SDS011;17904;47.420;9.310;2023-02-15T08:11:47;9.50;;;3.92;;
31270;SDS011;17904;47.420;9.310;2023-02-15T08:14:18;9.80;;;3.97;;
31270;SDS011;17904;47.420;9.310;2023-02-15T08:19:18;7.57;;;4.10;;
31270;SDS011;17904;47.420;9.310;2023-02-15T08:21:47;7.00;;;3.72;;
31270;SDS011;17904;47.420;9.310;2023-02-15T08:24:18;12.90;;;4.90;;
31270;SDS011;17904;47.420;9.310;2023-02-15T08:26:46;8.77;;;5.03;;
31270;SDS011;17904;47.420;9.310;2023-02-15T08:29:14;13.32;;;4.78;;
31270;SDS011;17904;47.420;9.310;2023-02-15T08:31:42;12.70;;;4.78;;
31270;SDS011;17904;47.420;9.310;2023-02-15T08:34:11;12.88;;;4.47;;
31270;SDS011;17904;47.420;9.310;2023-02-15T08:36:40;9.60;;;4.13;;
31270;SDS011;17904;47.420;9.310;2023-02-15T08:39:08;6.13;;;3.65;;
31270;SDS011;17904;47.420;9.310;2023-02-15T08:41:35;14.07;;;4.47;;
31270;SDS011;17904;47.420;9.310;2023-02-15T08:44:04;12.45;;;5.28;;
31270;SDS011;17904;47.420;9.310;2023-02-15T08:46:33;8.48;;;4.43;;
31270;SDS011;17904;47.420;9.310;2023-02-15T08:49:02;13.30;;;4.82;;
31270;SDS011;17904;47.420;9.310;2023-02-15T08:51:30;14.77;;;4.75;;
31270;SDS011;17904;47.420;9.310;2023-02-15T08:54:02;10.38;;;5.07;;
31270;SDS011;17904;47.420;9.310;2023-02-15T08:56:34;9.35;;;5.35;;
31270;SDS011;17904;47.420;9.310;2023-02-15T08:59:03;7.03;;;4.38;;
31270;SDS011;17904;47.420;9.310;2023-02-15T09:01:32;17.55;;;5.07;;
31270;SDS011;17904;47.420;9.310;2023-02-15T09:04:04;9.15;;;3.88;;
31270;SDS011;17904;47.420;9.310;2023-02-15T09:06:35;17.70;;;4.65;;
31270;SDS011;17904;47.420;9.310;2023-02-15T09:09:03;14.68;;;5.18;;
31270;SDS011;17904;47.420;9.310;2023-02-15T09:11:33;12.90;;;5.43;;
31270;SDS011;17904;47.420;9.310;2023-02-15T09:14:03;12.02;;;4.95;;
31270;SDS011;17904;47.420;9.310;2023-02-15T09:16:36;9.90;;;4.93;;
31270;SDS011;17904;47.420;9.310;2023-02-15T09:19:04;10.40;;;4.85;;
31270;SDS011;17904;47.420;9.310;2023-02-15T09:21:32;13.52;;;4.80;;
31270;SDS011;17904;47.420;9.310;2023-02-15T09:24:02;10.35;;;4.88;;
31270;SDS011;17904;47.420;9.310;2023-02-15T09:26:34;10.10;;;4.15;;
31270;SDS011;17904;47.420;9.310;2023-02-15T09:29:03;9.82;;;4.70;;
31270;SDS011;17904;47.420;9.310;2023-02-15T09:31:36;9.00;;;5.25;;
31270;SDS011;17904;47.420;9.310;2023-02-15T09:34:13;6.35;;;3.65;;
31270;SDS011;17904;47.420;9.310;2023-02-15T09:36:44;10.48;;;4.60;;
31270;SDS011;17904;47.420;9.310;2023-02-15T09:39:14;15.68;;;3.72;;
31270;SDS011;17904;47.420;9.310;2023-02-15T09:42:02;7.75;;;4.30;;
31270;SDS011;17904;47.420;9.310;2023-02-15T10:10:24;6.80;;;4.05;;
31270;SDS011;17904;47.420;9.310;2023-02-15T10:15:50;12.38;;;4.43;;
31270;SDS011;17904;47.420;9.310;2023-02-15T10:26:46;9.52;;;5.30;;
31270;SDS011;17904;47.420;9.310;2023-02-15T10:35:00;11.55;;;7.25;;
31270;SDS011;17904;47.420;9.310;2023-02-15T10:37:44;10.95;;;7.07;;
31270;SDS011;17904;47.420;9.310;2023-02-15T10:40:32;10.93;;;7.65;;
31270;SDS011;17904;47.420;9.310;2023-02-15T10:48:43;16.02;;;7.90;;
31270;SDS011;17904;47.420;9.310;2023-02-15T10:54:20;10.60;;;7.43;;
31270;SDS011;17904;47.420;9.310;2023-02-15T10:57:09;12.63;;;6.97;;
31270;SDS011;17904;47.420;9.310;2023-02-15T11:02:47;14.70;;;8.52;;
31270;SDS011;17904;47.420;9.310;2023-02-15T11:05:41;16.92;;;8.20;;
31270;SDS011;17904;47.420;9.310;2023-02-15T11:08:32;16.27;;;9.70;;
31270;SDS011;17904;47.420;9.310;2023-02-15T11:11:03;19.30;;;9.50;;
31270;SDS011;17904;47.420;9.310;2023-02-15T11:13:36;12.13;;;9.52;;
31270;SDS011;17904;47.420;9.310;2023-02-15T11:16:11;13.20;;;8.93;;
31270;SDS011;17904;47.420;9.310;2023-02-15T11:18:46;15.88;;;9.10;;
31270;SDS011;17904;47.420;9.310;2023-02-15T11:21:22;13.60;;;9.25;;
31270;SDS011;17904;47.420;9.310;2023-02-15T11:23:49;14.98;;;9.48;;
31270;SDS011;17904;47.420;9.310;2023-02-15T11:28:54;16.48;;;9.13;;
31270;SDS011;17904;47.420;9.310;2023-02-15T11:31:37;18.58;;;10.30;;
31270;SDS011;17904;47.420;9.310;2023-02-15T11:34:34;12.82;;;8.55;;
31270;SDS011;17904;47.420;9.310;2023-02-15T11:37:08;12.88;;;8.88;;
31270;SDS011;17904;47.420;9.310;2023-02-15T11:39:38;12.98;;;8.25;;
31270;SDS011;17904;47.420;9.310;2023-02-15T11:42:07;16.55;;;9.60;;
31270;SDS011;17904;47.420;9.310;2023-02-15T11:44:47;15.43;;;9.05;;
31270;SDS011;17904;47.420;9.310;2023-02-15T11:47:21;11.65;;;8.55;;
31270;SDS011;17904;47.420;9.310;2023-02-15T11:49:47;14.95;;;9.00;;
31270;SDS011;17904;47.420;9.310;2023-02-15T11:52:14;16.95;;;9.02;;
31270;SDS011;17904;47.420;9.310;2023-02-15T11:54:43;15.13;;;10.73;;
31270;SDS011;17904;47.420;9.310;2023-02-15T11:57:22;11.88;;;8.80;;
31270;SDS011;17904;47.420;9.310;2023-02-15T11:59:59;13.52;;;8.57;;
31270;SDS011;17904;47.420;9.310;2023-02-15T12:02:33;13.43;;;7.32;;
31270;SDS011;17904;47.420;9.310;2023-02-15T12:05:05;15.95;;;9.10;;
31270;SDS011;17904;47.420;9.310;2023-02-15T12:07:40;16.88;;;10.05;;
31270;SDS011;17904;47.420;9.310;2023-02-15T12:10:28;12.85;;;10.05;;
31270;SDS011;17904;47.420;9.310;2023-02-15T12:13:13;20.52;;;10.52;;
31270;SDS011;17904;47.420;9.310;2023-02-15T12:15:42;17.25;;;12.65;;
31270;SDS011;17904;47.420;9.310;2023-02-15T12:18:17;18.23;;;11.88;;
31270;SDS011;17904;47.420;9.310;2023-02-15T12:20:59;18.17;;;12.40;;
31270;SDS011;17904;47.420;9.310;2023-02-15T12:23:29;17.95;;;12.48;;
31270;SDS011;17904;47.420;9.310;2023-02-15T12:25:58;16.55;;;12.00;;
31270;SDS011;17904;47.420;9.310;2023-02-15T12:30:56;18.00;;;12.20;;
31270;SDS011;17904;47.420;9.310;2023-02-15T12:33:41;17.35;;;10.48;;
31270;SDS011;17904;47.420;9.310;2023-02-15T12:36:21;15.75;;;11.15;;
31270;SDS011;17904;47.420;9.310;2023-02-15T12:41:58;17.25;;;12.00;;
31270;SDS011;17904;47.420;9.310;2023-02-15T12:44:33;20.13;;;12.90;;
31270;SDS011;17904;47.420;9.310;2023-02-15T12:49:31;22.10;;;12.98;;
31270;SDS011;17904;47.420;9.310;2023-02-15T12:51:59;17.52;;;11.98;;
31270;SDS011;17904;47.420;9.310;2023-02-15T12:54:32;21.10;;;13.68;;
31270;SDS011;17904;47.420;9.310;2023-02-15T12:59:56;16.35;;;11.73;;
31270;SDS011;17904;47.420;9.310;2023-02-15T13:02:54;14.88;;;9.32;;
31270;SDS011;17904;47.420;9.310;2023-02-15T13:05:35;15.48;;;9.82;;
31270;SDS011;17904;47.420;9.310;2023-02-15T13:08:18;16.17;;;10.18;;
31270;SDS011;17904;47.420;9.310;2023-02-15T13:10:58;20.33;;;11.20;;
31270;SDS011;17904;47.420;9.310;2023-02-15T13:13:36;14.40;;;9.52;;
31270;SDS011;17904;47.420;9.310;2023-02-15T13:16:16;12.60;;;8.45;;
31270;SDS011;17904;47.420;9.310;2023-02-15T13:18:52;15.95;;;9.15;;
31270;SDS011;17904;47.420;9.310;2023-02-15T13:21:21;12.18;;;7.18;;
31270;SDS011;17904;47.420;9.310;2023-02-15T13:23:56;11.38;;;8.15;;
31270;SDS011;17904;47.420;9.310;2023-02-15T13:26:26;10.77;;;7.25;;
31270;SDS011;17904;47.420;9.310;2023-02-15T13:28:58;10.95;;;7.95;;
31270;SDS011;17904;47.420;9.310;2023-02-15T13:31:34;13.88;;;8.75;;
31270;SDS011;17904;47.420;9.310;2023-02-15T13:34:03;12.35;;;7.88;;
31270;SDS011;17904;47.420;9.310;2023-02-15T13:41:51;9.68;;;6.18;;
31270;SDS011;17904;47.420;9.310;2023-02-15T13:44:54;7.20;;;5.40;;
31270;SDS011;17904;47.420;9.310;2023-02-15T13:47:50;8.52;;;6.18;;
31270;SDS011;17904;47.420;9.310;2023-02-15T13:56:02;8.18;;;5.47;;
31270;SDS011;17904;47.420;9.310;2023-02-15T14:01:44;7.00;;;4.93;;
31270;SDS011;17904;47.420;9.310;2023-02-15T14:06:51;7.32;;;5.40;;
31270;SDS011;17904;47.420;9.310;2023-02-15T14:10:25;8.98;;;5.97;;
31270;SDS011;17904;47.420;9.310;2023-02-15T14:15:44;10.02;;;5.47;;
31270;SDS011;17904;47.420;9.310;2023-02-15T14:21:07;11.05;;;6.53;;
31270;SDS011;17904;47.420;9.310;2023-02-15T14:23:53;18.13;;;9.02;;
31270;SDS011;17904;47.420;9.310;2023-02-15T14:32:21;14.05;;;7.88;;
31270;SDS011;17904;47.420;9.310;2023-02-15T14:35:02;14.93;;;8.48;;
31270;SDS011;17904;47.420;9.310;2023-02-15T14:37:42;9.50;;;6.88;;
31270;SDS011;17904;47.420;9.310;2023-02-15T14:40:32;15.00;;;7.15;;
31270;SDS011;17904;47.420;9.310;2023-02-15T14:56:36;9.38;;;6.03;;
31270;SDS011;17904;47.420;9.310;2023-02-15T14:59:12;9.80;;;6.55;;
31270;SDS011;17904;47.420;9.310;2023-02-15T15:01:55;11.80;;;6.05;;
31270;SDS011;17904;47.420;9.310;2023-02-15T15:04:40;9.50;;;6.05;;
31270;SDS011;17904;47.420;9.310;2023-02-15T15:10:23;12.00;;;6.43;;
31270;SDS011;17904;47.420;9.310;2023-02-15T15:16:23;10.48;;;5.75;;
31270;SDS011;17904;47.420;9.310;2023-02-15T15:18:49;12.02;;;6.68;;
31270;SDS011;17904;47.420;9.310;2023-02-15T15:49:45;20.58;;;10.18;;
31270;SDS011;17904;47.420;9.310;2023-02-15T15:52:16;19.27;;;10.30;;
31270;SDS011;17904;47.420;9.310;2023-02-15T15:54:47;20.50;;;10.18;;
31270;SDS011;17904;47.420;9.310;2023-02-15T15:57:25;20.25;;;12.07;;
31270;SDS011;17904;47.420;9.310;2023-02-15T15:59:56;18.90;;;9.82;;
31270;SDS011;17904;47.420;9.310;2023-02-15T16:02:26;16.65;;;9.45;;
31270;SDS011;17904;47.420;9.310;2023-02-15T16:04:53;19.85;;;11.07;;
31270;SDS011;17904;47.420;9.310;2023-02-15T16:07:24;21.23;;;11.20;;
31270;SDS011;17904;47.420;9.310;2023-02-15T16:09:56;17.30;;;10.10;;
31270;SDS011;17904;47.420;9.310;2023-02-15T16:12:30;17.88;;;10.57;;
31270;SDS011;17904;47.420;9.310;2023-02-15T16:15:19;19.50;;;11.20;;
31270;SDS011;17904;47.420;9.310;2023-02-15T16:17:51;21.20;;;10.73;;
31270;SDS011;17904;47.420;9.310;2023-02-15T16:20:26;21.20;;;11.07;;
31270;SDS011;17904;47.420;9.310;2023-02-15T16:29:14;18.92;;;11.55;;
31270;SDS011;17904;47.420;9.310;2023-02-15T16:34:24;41.38;;;12.88;;
31270;SDS011;17904;47.420;9.310;2023-02-15T16:39:44;23.10;;;12.60;;
31270;SDS011;17904;47.420;9.310;2023-02-15T16:42:14;23.50;;;11.38;;
31270;SDS011;17904;47.420;9.310;2023-02-15T16:44:43;20.73;;;11.63;;
31270;SDS011;17904;47.420;9.310;2023-02-15T16:47:33;25.65;;;12.57;;
31270;SDS011;17904;47.420;9.310;2023-02-15T16:50:00;25.15;;;12.30;;
31270;SDS011;17904;47.420;9.310;2023-02-15T16:52:29;20.83;;;11.25;;
31270;SDS011;17904;47.420;9.310;2023-02-15T16:57:25;27.33;;;12.27;;
31270;SDS011;17904;47.420;9.310;2023-02-15T17:00:00;22.95;;;13.07;;
31270;SDS011;17904;47.420;9.310;2023-02-15T17:02:31;20.73;;;12.57;;
31270;SDS011;17904;47.420;9.310;2023-02-15T17:05:19;25.70;;;13.07;;
31270;SDS011;17904;47.420;9.310;2023-02-15T17:08:04;26.15;;;12.13;;
31270;SDS011;17904;47.420;9.310;2023-02-15T17:10:38;26.85;;;12.90;;
31270;SDS011;17904;47.420;9.310;2023-02-15T17:13:10;20.73;;;11.40;;
31270;SDS011;17904;47.420;9.310;2023-02-15T17:15:41;19.15;;;11.63;;
31270;SDS011;17904;47.420;9.310;2023-02-15T17:18:16;20.48;;;10.68;;
31270;SDS011;17904;47.420;9.310;2023-02-15T17:20:45;22.02;;;10.95;;
31270;SDS011;17904;47.420;9.310;2023-02-15T17:26:00;19.50;;;10.50;;
31270;SDS011;17904;47.420;9.310;2023-02-15T17:28:36;15.38;;;9.38;;
31270;SDS011;17904;47.420;9.310;2023-02-15T17:31:06;16.02;;;9.27;;
31270;SDS011;17904;47.420;9.310;2023-02-15T17:33:36;22.27;;;10.55;;
31270;SDS011;17904;47.420;9.310;2023-02-15T17:36:16;19.83;;;10.23;;
31270;SDS011;17904;47.420;9.310;2023-02-15T17:41:27;14.80;;;7.97;;
31270;SDS011;17904;47.420;9.310;2023-02-15T17:43:55;20.45;;;10.25;;
31270;SDS011;17904;47.420;9.310;2023-02-15T17:46:22;14.40;;;8.68;;
31270;SDS011;17904;47.420;9.310;2023-02-15T17:48:51;14.20;;;8.48;;
31270;SDS011;17904;47.420;9.310;2023-02-15T17:51:20;13.30;;;8.18;;
31270;SDS011;17904;47.420;9.310;2023-02-15T17:53:47;16.15;;;8.50;;
31270;SDS011;17904;47.420;9.310;2023-02-15T17:56:33;21.33;;;9.35;;
31270;SDS011;17904;47.420;9.310;2023-02-15T17:59:01;20.48;;;9.65;;
31270;SDS011;17904;47.420;9.310;2023-02-15T18:01:36;19.52;;;9.70;;
31270;SDS011;17904;47.420;9.310;2023-02-15T18:04:33;18.65;;;9.07;;
31270;SDS011;17904;47.420;9.310;2023-02-15T18:07:20;18.88;;;9.85;;
31270;SDS011;17904;47.420;9.310;2023-02-15T18:10:16;20.73;;;10.32;;
31270;SDS011;17904;47.420;9.310;2023-02-15T18:13:02;19.77;;;8.85;;
31270;SDS011;17904;47.420;9.310;2023-02-15T18:15:29;15.93;;;9.10;;
31270;SDS011;17904;47.420;9.310;2023-02-15T18:20:24;21.40;;;8.98;;
31270;SDS011;17904;47.420;9.310;2023-02-15T18:22:54;15.43;;;9.07;;
31270;SDS011;17904;47.420;9.310;2023-02-15T18:25:21;19.75;;;9.18;;
31270;SDS011;17904;47.420;9.310;2023-02-15T18:27:50;11.07;;;6.63;;
31270;SDS011;17904;47.420;9.310;2023-02-15T18:30:21;15.98;;;8.00;;
31270;SDS011;17904;47.420;9.310;2023-02-15T18:32:49;15.63;;;7.22;;
31270;SDS011;17904;47.420;9.310;2023-02-15T18:35:20;21.35;;;7.45;;
31270;SDS011;17904;47.420;9.310;2023-02-15T18:37:49;13.07;;;7.15;;
31270;SDS011;17904;47.420;9.310;2023-02-15T18:40:22;10.05;;;6.20;;
31270;SDS011;17904;47.420;9.310;2023-02-15T18:42:51;11.15;;;6.63;;
31270;SDS011;17904;47.420;9.310;2023-02-15T18:45:22;17.83;;;7.80;;
31270;SDS011;17904;47.420;9.310;2023-02-15T18:47:52;18.25;;;7.50;;
31270;SDS011;17904;47.420;9.310;2023-02-15T18:50:20;14.40;;;7.97;;
31270;SDS011;17904;47.420;9.310;2023-02-15T18:52:49;10.35;;;6.25;;
31270;SDS011;17904;47.420;9.310;2023-02-15T18:55:18;10.10;;;6.28;;
31270;SDS011;17904;47.420;9.310;2023-02-15T18:57:51;12.75;;;7.13;;
31270;SDS011;17904;47.420;9.310;2023-02-15T19:00:21;14.82;;;6.82;;
31270;SDS011;17904;47.420;9.310;2023-02-15T19:02:57;10.00;;;6.40;;
31270;SDS011;17904;47.420;9.310;2023-02-15T19:05:25;14.30;;;7.05;;
31270;SDS011;17904;47.420;9.310;2023-02-15T19:07:55;10.30;;;5.38;;
31270;SDS011;17904;47.420;9.310;2023-02-15T19:10:24;7.72;;;4.85;;
31270;SDS011;17904;47.420;9.310;2023-02-15T19:12:52;8.70;;;5.25;;
31270;SDS011;17904;47.420;9.310;2023-02-15T19:15:30;10.20;;;6.15;;
31270;SDS011;17904;47.420;9.310;2023-02-15T19:17:56;7.75;;;5.10;;
31270;SDS011;17904;47.420;9.310;2023-02-15T19:20:24;9.82;;;5.70;;
31270;SDS011;17904;47.420;9.310;2023-02-15T19:22:52;10.50;;;5.70;;
31270;SDS011;17904;47.420;9.310;2023-02-15T19:25:22;6.70;;;4.53;;
31270;SDS011;17904;47.420;9.310;2023-02-15T19:27:51;9.82;;;5.32;;
31270;SDS011;17904;47.420;9.310;2023-02-15T19:30:29;9.98;;;5.93;;
31270;SDS011;17904;47.420;9.310;2023-02-15T19:32:57;7.50;;;4.80;;
31270;SDS011;17904;47.420;9.310;2023-02-15T19:35:26;7.55;;;5.47;;
31270;SDS011;17904;47.420;9.310;2023-02-15T19:37:57;12.52;;;5.35;;